x

Lake Simcoe (45151) Weather Station

4:00am - Tue 21st Oct 2014 All times are CDT. -5 hours from GMT.

  • Peak Period 3s
  • Wind
    9mph, 11mph gusts
  • Sea Temp 55°f
  • Air Temp 51°f
  • Sea Pressure 1008.8mb
  • Lake Simcoe
  • Lake Simcoe

More Historic Weather Station data

Upgrade to MSW Pro to gain access to the past 30 days of data for over 8000 Wavebouys and Weather Stations around the globe.

Join Pro

Comparision Forecast

View Surf forecast
   
Tue 10/21 4:00am  -  3s 9 11 mph 1008.8mb 55f 51f
3:00am  -  3s 4 7 mph 1008.6mb 55f 50f
2:00am  -  4s 4 7 mph 1008.6mb 55f 51f
1:00am  -  3s 7
mph
1008.6mb 55f 51f
12:00am  -  3s 4 7 mph 1008.9mb 55f 51f
Mon 10/20 11:00pm  -  2s 4 7 mph 1009.1mb 55f 50f
10:00pm 0.3ft 2s 4 7 mph 1009.2mb 55f 51f
9:00pm 0.3ft 2s 7 9 mph 1009.3mb 55f 51f
8:00pm 0.3ft 2s 4 7 mph 1009.3mb 55f 51f
7:00pm 0.3ft 2s 9 11 mph 1009.3mb 55f 51f
6:00pm 0.3ft 2s 7 9 mph 1009.2mb 55f 51f
5:00pm 0.7ft 2s 7 9 mph 1008.9mb 55f 50f
4:00pm 0.7ft 2s 9
mph
1008.9mb 55f 50f
3:00pm 1ft 2s 9 11 mph 1009mb 55f 49f
2:00pm 1.3ft 3s 9 11 mph 1009.2mb 55f 48f
1:00pm 1.6ft 3s 13 18 mph 1009.5mb 55f 49f
12:00pm 1.6ft 3s 16 18 mph 1009.9mb 55f 48f
11:00am 1.3ft 3s 13 18 mph 1010.6mb 55f 47f
10:00am 1.6ft 3s 13 18 mph 1011.1mb 56f 47f
9:00am 2ft 4s 16 20 mph 1011.6mb 55f 47f
8:00am 2ft 3s 18 20 mph 1011.9mb 56f 47f
7:00am 1.6ft 3s 20 25 mph 1011.9mb 56f 46f
6:00am 1ft 2s 13 16 mph 1011.9mb 56f 47f
5:00am 1ft 2s 13 16 mph 1012.1mb 56f 46f
4:00am 1ft 2s 13 16 mph 1013.2mb 56f 46f
3:00am 0.7ft 2s 9 13 mph 1013.4mb 56f 46f
2:00am 0.7ft 2s 9 13 mph 1014.4mb 56f 46f
1:00am 0.3ft 2s 7 9 mph 1014.9mb 56f 46f
12:00am 0.3ft 2s 9 13 mph 1015.2mb 56f 46f
Sun 10/19 10:00pm  -  4s 4 7 mph 1016mb 56f 45f
9:00pm  -  3s 7 9 mph 1016.4mb 56f 44f
8:00pm  -  2s 4 7 mph 1016.7mb 56f 44f
7:00pm 0.3ft 2s 4 7 mph 1017.1mb 56f 44f
6:00pm 0.3ft 2s 7 9 mph 1017.2mb 56f 44f
5:00pm 0.7ft 2s 7 11 mph 1017.4mb 56f 45f
4:00pm 0.7ft 2s 11 16 mph 1017.7mb 56f 45f
3:00pm 0.7ft 2s 9 11 mph 1018.1mb 56f 43f
2:00pm 0.7ft 2s 9 13 mph 1018.4mb 56f 43f
1:00pm 0.3ft 2s 13 18 mph 1018.9mb 56f 42f
12:00pm 0.7ft 2s 7 9 mph 1019.5mb 56f 40f
11:00am 0.7ft 2s 11 13 mph 1020.2mb 56f 39f
10:00am 0.7ft 2s 11 18 mph 1020.2mb 56f 38f
9:00am 1ft 2s 13 18 mph 1020.3mb 56f 37f
8:00am 1ft 2s 13 20 mph 1019.9mb 56f 37f
7:00am 0.7ft 2s 16 22 mph 1019.5mb 56f 38f
6:00am 1ft 3s 18 22 mph 1019.1mb 56f 38f
5:00am 1ft 2s 18 27 mph 1018.6mb 56f 38f
4:00am 1ft 2s 13 20 mph 1018mb 56f 38f
3:00am 1ft 2s 16 18 mph 1017.5mb 56f 37f
2:00am 1ft 2s 16 20 mph 1017.1mb 56f 37f
1:00am 1ft 3s 16 22 mph 1016.7mb 56f 39f
12:00am 1ft 3s 16 22 mph 1016.5mb 56f 39f
Sat 10/18 11:00pm 1.3ft 3s 18 22 mph 1015.8mb 56f 40f
10:00pm 1.3ft 3s 20 25 mph 1015.5mb 56f 41f
9:00pm 1.3ft 3s 22 27 mph 1015mb 56f 41f
8:00pm 1.6ft 3s 18 22 mph 1014.4mb 56f 43f
7:00pm 1.6ft 3s 22 31 mph 1013.9mb 57f 42f
6:00pm 1.6ft 3s 20 27 mph 1012.4mb 57f 43f
5:00pm 1.6ft 3s 20 29 mph 1011.7mb 57f 45f
4:00pm 2ft 3s 22 27 mph 1010.6mb 57f 45f
3:00pm 2ft 3s 25 31 mph 1009.4mb 57f 46f
1:00pm 2ft 3s 25 31 mph 1007.8mb 57f 46f
12:00pm 1.6ft 3s 25 29 mph 1006.7mb 57f 47f
11:00am 1.6ft 3s 25 29 mph 1006mb 57f 47f
10:00am 1.3ft 3s 20 25 mph 1004.7mb 57f 47f
9:00am 1ft 2s 22 27 mph 1004mb 57f 47f
8:00am 1ft 2s 18 20 mph 1002.5mb 57f 48f
7:00am 1ft 2s 18 22 mph 1001.4mb 57f 49f
6:00am 0.7ft 2s 13 16 mph 1000.2mb 57f 49f
5:00am 0.7ft 2s 16 20 mph 999.5mb 57f 51f
4:00am 0.7ft 2s 9 11 mph 998.5mb 57f 52f
3:00am 0.7ft 2s 13 16 mph 998.1mb 57f 53f
2:00am 1ft 3s 13 16 mph 998mb 57f 53f
1:00am 1.3ft 3s 16 20 mph 997.8mb 57f 53f
12:00am 1.6ft 3s 16 18 mph 997.2mb 57f 56f
Fri 10/17 11:00pm 1.3ft 3s 18 20 mph 997.1mb 57f 56f
10:00pm 1.3ft 3s 16 20 mph 997.4mb 57f 56f
9:00pm 1.3ft 3s 13 18 mph 997.5mb 57f 57f
8:00pm 1.6ft 3s 13 18 mph 997.5mb 57f 57f
7:00pm 2ft 3s 16 18 mph 997.7mb 57f 57f
6:00pm 1.6ft 3s 20 22 mph 997.7mb 57f 58f
5:00pm 1.3ft 3s 13 18 mph 997.6mb 58f 58f
4:00pm 1.3ft 3s 13 16 mph 997.5mb 58f 59f
3:00pm 1.3ft 3s 16 18 mph 997.3mb 58f 59f
2:00pm 1.3ft 3s 13 16 mph 997.5mb 58f 59f
1:00pm 1.3ft 3s 13 16 mph 997.9mb 58f 58f
12:00pm 1.6ft 3s 13 16 mph 998.8mb 57f 57f
11:00am 1.3ft 3s 16 18 mph 999.5mb 58f 56f